Time;durP1;ratioP1;P1;durP2;ratioP2;P2;SDS_P1;SDS_P2;PMS_P1;PMS_P2;Temp;Humidity;BMP_temperature;BMP_pressure;BME280_temperature;BME280_humidity;BME280_pressure;Samples;Min_cycle;Max_cycle;Signal;HPM_P1;HPM_P2
2021/12/29 00:01:25;;;;;;;5.00;2.00;;;;;;;-0.16;100.00;100450.01;1726965;81;21070;-87
2021/12/29 00:03:52;;;;;;;4.75;2.08;;;;;;;-0.14;100.00;100448.51;1635769;85;21120;-87
2021/12/29 00:06:18;;;;;;;5.53;1.90;;;;;;;-0.10;100.00;100445.77;1635538;84;21576;-87
2021/12/29 00:08:44;;;;;;;4.50;1.82;;;;;;;-0.09;100.00;100446.92;1658321;85;21070;-87
2021/12/29 00:11:10;;;;;;;4.90;1.92;;;;;;;-0.06;100.00;100446.53;1657909;85;21575;-87
2021/12/29 00:13:36;;;;;;;4.17;1.95;;;;;;;-0.03;100.00;100439.52;1658294;85;21026;-86
2021/12/29 00:16:03;;;;;;;4.90;2.08;;;;;;;0.02;100.00;100443.41;1657731;84;21093;-87
2021/12/29 00:18:33;;;;;;;3.08;1.98;;;;;;;0.05;100.00;100449.12;1658139;85;21635;-88
2021/12/29 00:21:01;;;;;;;5.70;2.33;;;;;;;0.07;100.00;100448.44;1657548;84;21393;-87
2021/12/29 00:23:27;;;;;;;4.55;2.22;;;;;;;0.07;100.00;100441.81;1657829;85;21866;-87
2021/12/29 00:25:54;;;;;;;5.78;2.22;;;;;;;0.10;100.00;100446.72;1657722;84;21131;-88
2021/12/29 00:28:21;;;;;;;5.28;2.40;;;;;;;0.13;100.00;100442.87;1657759;84;20990;-88
2021/12/29 00:30:48;;;;;;;6.10;2.30;;;;;;;0.16;100.00;100436.66;1657372;85;21020;-87
2021/12/29 00:33:14;;;;;;;3.87;1.80;;;;;;;0.18;100.00;100435.97;1657542;85;21119;-87
2021/12/29 00:35:42;;;;;;;4.08;2.25;;;;;;;0.21;100.00;100430.80;1657742;85;21138;-88
2021/12/29 00:38:11;;;;;;;6.50;2.83;;;;;;;0.25;100.00;100432.53;1658101;85;20970;-88
2021/12/29 00:40:39;;;;;;;9.28;3.25;;;;;;;0.26;100.00;100425.70;1657651;85;21079;-88
2021/12/29 00:43:06;;;;;;;6.85;2.37;;;;;;;0.30;100.00;100426.97;1658910;85;21028;-89
2021/12/29 00:45:38;;;;;;;4.53;2.15;;;;;;;0.31;100.00;100427.27;1657876;86;21067;-89
2021/12/29 00:48:10;;;;;;;4.60;1.95;;;;;;;0.35;100.00;100419.22;1657939;84;22047;-89
2021/12/29 00:50:36;;;;;;;4.15;1.82;;;;;;;0.38;100.00;100423.31;1638864;85;22561;-89
2021/12/29 00:53:02;;;;;;;5.22;1.92;;;;;;;0.41;100.00;100422.44;1639015;86;21085;-90
2021/12/29 00:55:29;;;;;;;6.28;2.00;;;;;;;0.46;100.00;100420.50;1639129;86;21112;-90
2021/12/29 00:57:55;;;;;;;4.10;2.00;;;;;;;0.49;100.00;100432.03;1639018;86;21065;-90
2021/12/29 01:00:23;;;;;;;3.75;1.90;;;;;;;0.51;100.00;100418.59;1670407;81;22008;-91
2021/12/29 01:02:54;;;;;;;4.72;2.00;;;;;;;0.55;100.00;100414.00;1732483;81;21022;-91
2021/12/29 01:05:20;;;;;;;5.15;2.15;;;;;;;0.56;100.00;100416.14;1732073;81;21060;-91
2021/12/29 01:07:49;;;;;;;5.37;2.35;;;;;;;0.62;100.00;100420.68;1732833;81;21112;-90
2021/12/29 01:10:16;;;;;;;6.12;2.50;;;;;;;0.65;100.00;100425.59;1732692;81;21073;-91
2021/12/29 01:12:51;;;;;;;4.20;2.08;;;;;;;0.72;100.00;100429.06;1732990;81;21162;-91
2021/12/29 01:15:14;;;;;;;4.97;2.27;;;;;;;0.76;100.00;100431.61;1728498;81;20991;-91
2021/12/29 01:17:38;;;;;;;5.08;2.37;;;;;;;0.81;100.00;100427.05;1728665;81;21182;-91
2021/12/29 01:20:05;;;;;;;9.13;2.77;;;;;;;0.86;100.00;100429.41;1732763;81;21158;-90
2021/12/29 01:22:31;;;;;;;8.23;3.12;;;;;;;0.92;100.00;100430.45;1732818;81;20966;-92
2021/12/29 01:24:57;;;;;;;12.25;3.67;;;;;;;0.95;100.00;100433.22;1732811;81;21986;-92
2021/12/29 01:27:23;;;;;;;14.93;4.47;;;;;;;0.97;100.00;100432.00;1732612;81;20885;-91
2021/12/29 01:29:48;;;;;;;17.37;4.95;;;;;;;1.00;100.00;100430.76;1732699;81;21010;-92
2021/12/29 01:32:15;;;;;;;15.32;4.62;;;;;;;1.01;100.00;100435.88;1732487;81;20876;-92
2021/12/29 01:34:41;;;;;;;19.10;6.30;;;;;;;1.01;100.00;100433.23;1732689;81;21062;-92
2021/12/29 01:37:07;;;;;;;19.23;5.72;;;;;;;1.01;100.00;100445.16;1732821;81;21107;-90
2021/12/29 01:39:33;;;;;;;25.77;6.62;;;;;;;1.05;100.00;100450.87;1732618;81;20883;-91
2021/12/29 01:41:59;;;;;;;24.95;7.87;;;;;;;1.05;100.00;100442.41;1732612;81;21515;-94
2021/12/29 01:44:28;;;;;;;27.70;7.92;;;;;;;1.08;100.00;100445.17;1732431;81;21099;-91
2021/12/29 01:46:57;;;;;;;26.02;7.92;;;;;;;1.09;100.00;100435.70;1732563;81;22140;-91
2021/12/29 01:49:24;;;;;;;34.40;8.43;;;;;;;1.09;100.00;100436.21;1744306;80;21086;-91
2021/12/29 01:52:01;;;;;;;31.23;9.20;;;;;;;1.09;100.00;100433.05;1761449;80;21004;-92
2021/12/29 01:54:26;;;;;;;31.45;7.15;;;;;;;1.10;100.00;100436.00;1756376;80;21021;-92
2021/12/29 01:56:58;;;;;;;28.02;7.72;;;;;;;1.13;100.00;100446.20;1760889;80;21047;-91
2021/12/29 01:59:27;;;;;;;26.37;7.45;;;;;;;1.15;100.00;100438.05;1757879;80;21036;-91
2021/12/29 02:01:54;;;;;;;24.57;7.35;;;;;;;1.16;100.00;100446.31;1761565;80;21080;-92
2021/12/29 02:04:20;;;;;;;25.72;7.60;;;;;;;1.12;100.00;100452.54;1761264;80;21655;-91
2021/12/29 02:06:47;;;;;;;27.27;8.20;;;;;;;1.13;100.00;100445.39;1761373;80;20961;-91
2021/12/29 02:09:14;;;;;;;25.65;7.95;;;;;;;1.13;100.00;100435.59;1755973;80;21028;-92
2021/12/29 02:11:42;;;;;;;26.75;8.30;;;;;;;1.14;100.00;100435.89;1761462;80;21547;-91
2021/12/29 02:14:09;;;;;;;33.30;9.08;;;;;;;1.17;100.00;100437.84;1761401;79;21003;-90
2021/12/29 02:16:36;;;;;;;29.75;8.70;;;;;;;1.16;100.00;100437.03;1761070;80;20989;-91
2021/12/29 02:19:08;;;;;;;32.10;9.03;;;;;;;1.17;100.00;100446.61;1761578;80;21417;-91
2021/12/29 02:21:34;;;;;;;32.48;8.90;;;;;;;1.17;100.00;100449.27;1692764;83;21007;-91
2021/12/29 02:24:17;;;;;;;28.95;8.95;;;;;;;1.18;100.00;100448.27;1692599;83;21071;-92
2021/12/29 02:26:34;;;;;;;29.70;8.98;;;;;;;1.15;100.00;100448.67;1688969;83;21083;-91
2021/12/29 02:29:03;;;;;;;30.65;8.85;;;;;;;1.17;100.00;100455.91;1692751;83;21063;-91
2021/12/29 02:31:29;;;;;;;35.63;10.25;;;;;;;1.15;100.00;100452.66;1692832;83;21090;-90
2021/12/29 02:33:57;;;;;;;31.90;9.48;;;;;;;1.16;100.00;100449.48;1692808;83;21079;-90
2021/12/29 02:36:25;;;;;;;33.80;10.15;;;;;;;1.17;100.00;100455.09;1692708;83;21046;-90
2021/12/29 02:38:54;;;;;;;32.98;9.65;;;;;;;1.14;100.00;100446.50;1692598;83;21095;-90
2021/12/29 02:41:23;;;;;;;36.73;10.85;;;;;;;1.13;100.00;100440.90;1692292;83;21066;-91
2021/12/29 02:43:58;;;;;;;31.40;9.80;;;;;;;1.11;100.00;100444.77;1692711;83;21527;-90
2021/12/29 02:46:19;;;;;;;34.63;10.20;;;;;;;1.11;100.00;100450.89;1689163;83;21169;-90
2021/12/29 02:48:59;;;;;;;32.65;9.65;;;;;;;1.08;100.00;100447.31;1692725;83;21042;-89
2021/12/29 02:51:24;;;;;;;32.10;10.23;;;;;;;1.09;100.00;100447.64;1689057;83;20949;-90
2021/12/29 02:53:50;;;;;;;36.75;10.38;;;;;;;1.07;100.00;100444.88;1689853;83;20937;-89
2021/12/29 02:56:16;;;;;;;30.80;9.58;;;;;;;1.08;100.00;100454.45;1689474;83;21047;-89
2021/12/29 02:58:42;;;;;;;36.08;10.65;;;;;;;1.09;100.00;100450.80;1689718;84;21055;-90
2021/12/29 03:01:12;;;;;;;37.83;10.90;;;;;;;1.11;100.00;100447.42;1690855;83;21020;-90
2021/12/29 03:03:39;;;;;;;33.60;10.15;;;;;;;1.11;100.00;100450.89;1690719;83;21780;-88
2021/12/29 03:06:07;;;;;;;35.33;10.25;;;;;;;1.11;100.00;100462.02;1690228;83;20971;-89
2021/12/29 03:08:33;;;;;;;35.70;11.30;;;;;;;1.08;100.00;100461.09;1689528;83;21036;-88
2021/12/29 03:10:59;;;;;;;41.00;11.20;;;;;;;1.09;100.00;100467.54;1666307;84;21035;-89
2021/12/29 03:13:28;;;;;;;40.43;11.28;;;;;;;1.09;100.00;100464.88;1690056;83;21440;-88
2021/12/29 03:15:55;;;;;;;42.55;11.78;;;;;;;1.08;100.00;100465.07;1689297;83;21583;-89
2021/12/29 03:18:22;;;;;;;38.23;12.33;;;;;;;1.07;100.00;100470.89;1726197;79;21534;-88
2021/12/29 03:20:49;;;;;;;45.70;12.45;;;;;;;1.03;100.00;100470.16;1765213;79;21035;-88
2021/12/29 03:23:17;;;;;;;40.15;11.43;;;;;;;1.01;100.00;100473.53;1765175;79;21031;-88
2021/12/29 03:25:47;;;;;;;49.40;12.53;;;;;;;1.00;100.00;100475.86;1765118;79;21055;-87
2021/12/29 03:28:13;;;;;;;38.55;12.07;;;;;;;0.98;100.00;100476.08;1764821;80;20960;-88
2021/12/29 03:30:43;;;;;;;36.05;12.50;;;;;;;0.93;100.00;100473.71;1764645;79;21525;-88
2021/12/29 03:33:09;;;;;;;44.27;13.53;;;;;;;0.90;100.00;100481.04;1765053;79;20944;-87
2021/12/29 03:35:46;;;;;;;45.45;11.90;;;;;;;0.87;100.00;100475.32;1764983;79;21043;-86
2021/12/29 03:38:16;;;;;;;39.35;12.10;;;;;;;0.81;100.00;100488.05;1765256;79;21071;-87
2021/12/29 03:40:43;;;;;;;41.50;11.65;;;;;;;0.79;100.00;100484.26;1765009;79;21176;-88
2021/12/29 03:43:11;;;;;;;43.33;11.93;;;;;;;0.74;100.00;100486.70;1764881;79;21023;-87
2021/12/29 03:45:40;;;;;;;36.15;11.22;;;;;;;0.72;100.00;100486.08;1765139;79;21009;-87
2021/12/29 03:48:09;;;;;;;37.58;11.65;;;;;;;0.72;100.00;100486.59;1765355;79;21063;-87
2021/12/29 03:50:36;;;;;;;40.08;11.35;;;;;;;0.71;100.00;100495.55;1757725;80;21040;-88
2021/12/29 03:53:05;;;;;;;35.28;9.95;;;;;;;0.72;100.00;100498.53;1754580;80;21123;-88
2021/12/29 03:55:31;;;;;;;34.08;10.93;;;;;;;0.70;100.00;100500.03;1754314;80;21001;-87
2021/12/29 03:57:57;;;;;;;31.82;9.80;;;;;;;0.63;100.00;100503.17;1754672;80;21012;-87
2021/12/29 04:00:24;;;;;;;34.10;10.38;;;;;;;0.57;100.00;100504.78;1754605;80;21633;-87
2021/12/29 04:02:50;;;;;;;34.65;11.30;;;;;;;0.48;100.00;100506.47;1754802;80;21501;-87
2021/12/29 04:05:21;;;;;;;36.55;9.35;;;;;;;0.41;100.00;100509.91;1754813;80;21153;-86
2021/12/29 04:07:47;;;;;;;35.03;10.68;;;;;;;0.39;100.00;100509.27;1754504;80;21048;-86
2021/12/29 04:10:14;;;;;;;33.67;9.25;;;;;;;0.34;100.00;100511.68;1754425;80;21091;-87
2021/12/29 04:12:42;;;;;;;33.35;9.23;;;;;;;0.26;100.00;100509.69;1754528;80;21016;-87
2021/12/29 04:15:10;;;;;;;32.38;9.48;;;;;;;0.20;100.00;100505.98;1754606;80;21087;-87
2021/12/29 04:17:39;;;;;;;31.97;10.00;;;;;;;0.15;100.00;100501.28;1754436;80;21091;-87
2021/12/29 04:23:07;;;;;;;27.95;8.13;;;;;;;0.18;100.00;100522.59;1754365;80;21532;-87
2021/12/29 04:25:36;;;;;;;23.62;7.62;;;;;;;0.08;100.00;100516.80;1754596;80;21520;-87
2021/12/29 04:28:08;;;;;;;26.68;7.72;;;;;;;0.06;100.00;100528.09;1754217;80;21044;-87
2021/12/29 04:30:35;;;;;;;28.00;7.70;;;;;;;-0.02;100.00;100525.09;1754476;80;21032;-87
2021/12/29 04:33:01;;;;;;;23.47;6.85;;;;;;;-0.10;100.00;100528.69;1754454;80;21433;-87
2021/12/29 04:35:27;;;;;;;23.40;6.80;;;;;;;-0.14;100.00;100525.30;1751013;80;21016;-86
2021/12/29 04:37:54;;;;;;;25.05;7.58;;;;;;;-0.20;100.00;100525.56;1754886;80;20977;-87
2021/12/29 04:40:21;;;;;;;24.00;6.60;;;;;;;-0.28;100.00;100528.34;1754883;80;21567;-88
2021/12/29 04:42:47;;;;;;;23.25;7.42;;;;;;;-0.34;100.00;100523.80;1754654;80;21055;-86
2021/12/29 04:45:14;;;;;;;22.60;6.37;;;;;;;-0.41;100.00;100528.20;1731362;81;20882;-87
2021/12/29 04:47:43;;;;;;;22.50;7.33;;;;;;;-0.43;100.00;100535.53;1754304;80;21013;-87
2021/12/29 04:50:24;;;;;;;19.70;6.30;;;;;;;-0.44;100.00;100543.98;1756667;80;21540;-87
2021/12/29 04:52:41;;;;;;;27.70;7.20;;;;;;;-0.48;100.00;100545.35;1756778;80;21109;-88
2021/12/29 04:55:08;;;;;;;27.20;8.00;;;;;;;-0.51;100.00;100547.05;1731563;80;21834;-87
2021/12/29 04:57:34;;;;;;;18.87;6.97;;;;;;;-0.53;100.00;100553.88;1761379;80;20973;-87
2021/12/29 05:00:00;;;;;;;23.27;7.25;;;;;;;-0.56;100.00;100552.92;1731236;80;21110;-87
2021/12/29 05:02:26;;;;;;;19.62;6.72;;;;;;;-0.61;100.00;100553.98;1761553;80;20889;-87
2021/12/29 05:04:59;;;;;;;19.48;6.35;;;;;;;-0.61;100.00;100554.49;1761394;80;21619;-87
2021/12/29 05:10:08;;;;;;;21.25;6.22;;;;;;;-0.64;100.00;100551.71;1760871;80;21056;-87
2021/12/29 05:12:34;;;;;;;18.10;5.90;;;;;;;-0.65;100.00;100554.53;1761303;80;21059;-86
2021/12/29 05:15:00;;;;;;;17.73;6.28;;;;;;;-0.68;100.00;100563.66;1761741;80;21032;-87
2021/12/29 05:17:26;;;;;;;20.77;6.22;;;;;;;-0.71;100.00;100560.91;1761371;80;21497;-86
2021/12/29 05:19:52;;;;;;;17.05;5.62;;;;;;;-0.76;100.00;100561.15;1761639;80;21067;-86
2021/12/29 05:22:19;;;;;;;19.52;6.83;;;;;;;-0.78;100.00;100569.77;1761339;80;21036;-87
2021/12/29 05:24:45;;;;;;;21.90;7.50;;;;;;;-0.81;100.00;100571.46;1761332;80;21075;-86
2021/12/29 05:27:11;;;;;;;25.60;7.30;;;;;;;-0.84;100.00;100570.00;1761408;80;20944;-87
2021/12/29 05:29:38;;;;;;;19.98;6.90;;;;;;;-0.86;100.00;100570.69;1761440;80;21036;-86
2021/12/29 05:32:06;;;;;;;27.87;8.28;;;;;;;-0.90;100.00;100568.11;1731242;80;22076;-87
2021/12/29 05:34:33;;;;;;;26.23;7.30;;;;;;;-0.91;100.00;100570.44;1761169;80;21064;-86
2021/12/29 05:36:59;;;;;;;24.32;7.20;;;;;;;-0.87;100.00;100574.85;1761104;80;21048;-87
2021/12/29 05:39:25;;;;;;;26.02;7.50;;;;;;;-0.90;100.00;100583.16;1761137;80;20997;-86
2021/12/29 05:41:52;;;;;;;22.75;6.92;;;;;;;-0.89;100.00;100582.95;1760927;80;21028;-88
2021/12/29 05:44:18;;;;;;;19.40;7.22;;;;;;;-0.89;100.00;100582.95;1761429;80;21104;-86
2021/12/29 05:46:44;;;;;;;24.72;6.83;;;;;;;-0.91;100.00;100584.98;1761372;80;21008;-86
2021/12/29 05:49:11;;;;;;;24.77;7.75;;;;;;;-0.90;100.00;100587.13;1761334;80;21051;-86
2021/12/29 05:51:37;;;;;;;32.20;9.20;;;;;;;-0.81;100.00;100586.02;1760703;80;21055;-86
2021/12/29 05:54:03;;;;;;;37.03;10.95;;;;;;;-0.80;100.00;100585.81;1761215;80;21039;-87
2021/12/29 05:56:30;;;;;;;39.10;11.68;;;;;;;-0.78;100.00;100589.61;1761475;80;21151;-86
2021/12/29 05:58:59;;;;;;;36.73;11.75;;;;;;;-0.83;100.00;100586.69;1761490;80;21070;-86
2021/12/29 06:01:24;;;;;;;39.67;12.43;;;;;;;-0.86;100.00;100595.81;1760761;79;21051;-86
2021/12/29 06:03:50;;;;;;;39.85;12.33;;;;;;;-0.95;100.00;100601.70;1731030;81;20913;-86
2021/12/29 06:06:16;;;;;;;39.60;11.85;;;;;;;-1.01;100.00;100598.48;1761188;80;21039;-86
2021/12/29 06:08:42;;;;;;;55.03;13.83;;;;;;;-1.05;100.00;100602.50;1760957;80;21143;-87
2021/12/29 06:11:08;;;;;;;53.42;13.93;;;;;;;-1.08;100.00;100606.84;1761202;80;20976;-86
2021/12/29 06:13:34;;;;;;;47.83;13.83;;;;;;;-1.07;100.00;100603.69;1731521;80;20952;-86
2021/12/29 06:16:01;;;;;;;47.78;12.33;;;;;;;-1.08;100.00;100599.41;1761386;80;21515;-86
2021/12/29 06:18:27;;;;;;;48.13;13.28;;;;;;;-1.09;100.00;100605.17;1761159;80;20976;-85
2021/12/29 06:20:55;;;;;;;44.38;12.90;;;;;;;-1.06;100.00;100610.61;1761357;80;21146;-85
2021/12/29 06:23:21;;;;;;;38.83;11.75;;;;;;;-1.07;100.00;100613.76;1692328;83;21532;-86
2021/12/29 06:25:47;;;;;;;50.20;12.25;;;;;;;-1.10;100.00;100616.77;1692410;83;21060;-86
2021/12/29 06:28:14;;;;;;;46.30;12.50;;;;;;;-1.10;100.00;100612.80;1692322;83;21529;-85
2021/12/29 06:30:40;;;;;;;44.35;12.85;;;;;;;-1.06;100.00;100621.19;1692356;83;21258;-85
2021/12/29 06:33:07;;;;;;;44.05;12.30;;;;;;;-1.08;100.00;100625.34;1692561;83;21227;-85
2021/12/29 06:35:33;;;;;;;44.70;11.83;;;;;;;-1.09;100.00;100621.05;1688969;83;20963;-86
2021/12/29 06:37:59;;;;;;;49.23;13.53;;;;;;;-1.05;100.00;100617.05;1678305;83;21047;-86
2021/12/29 06:40:27;;;;;;;45.55;13.35;;;;;;;-1.04;100.00;100617.36;1686934;83;21132;-86
2021/12/29 06:42:53;;;;;;;57.58;14.60;;;;;;;-1.04;100.00;100621.32;1669699;84;21542;-85
2021/12/29 06:45:19;;;;;;;49.58;13.65;;;;;;;-1.07;100.00;100625.66;1664748;84;21231;-86
2021/12/29 06:47:45;;;;;;;53.48;15.68;;;;;;;-1.07;100.00;100630.13;1666976;84;20976;-85
2021/12/29 06:50:12;;;;;;;46.75;14.63;;;;;;;-1.02;100.00;100631.23;1667888;84;21590;-85
2021/12/29 06:52:38;;;;;;;46.48;13.10;;;;;;;-1.03;100.00;100628.27;1650125;86;21028;-85
2021/12/29 06:55:06;;;;;;;40.55;12.65;;;;;;;-1.02;100.00;100628.58;1646746;86;21102;-87
2021/12/29 06:57:32;;;;;;;49.42;13.78;;;;;;;-1.02;100.00;100632.55;1650728;86;21902;-85
2021/12/29 07:00:04;;;;;;;43.60;12.82;;;;;;;-1.01;100.00;100635.50;1653101;86;21457;-85
2021/12/29 07:02:35;;;;;;;49.33;13.53;;;;;;;-1.03;100.00;100633.56;1631054;86;21586;-84
2021/12/29 07:05:08;;;;;;;45.05;13.22;;;;;;;-0.98;100.00;100639.09;1559157;90;21423;-86
2021/12/29 07:07:49;;;;;;;;;;;;;;;;;;;;;
2021/12/29 07:10:08;;;;;;;50.95;13.43;;;;;;;-0.95;100.00;100645.85;1512279;92;21106;-86
2021/12/29 07:12:34;;;;;;;42.95;13.53;;;;;;;-0.91;100.00;100647.14;1517968;92;21213;-86
2021/12/29 07:15:00;;;;;;;48.05;13.53;;;;;;;-0.95;100.00;100640.05;1518950;92;21120;-87
2021/12/29 07:17:26;;;;;;;46.28;13.45;;;;;;;-0.92;100.00;100650.77;1515329;92;21554;-87
2021/12/29 07:19:53;;;;;;;50.25;14.23;;;;;;;-0.90;100.00;100657.22;1498424;93;21684;-89
2021/12/29 07:22:23;;;;;;;47.95;13.68;;;;;;;-0.90;100.00;100658.03;1516301;91;22112;-88
2021/12/29 07:24:49;;;;;;;46.53;12.45;;;;;;;-0.87;100.00;100655.53;1524856;92;21105;-89
2021/12/29 07:27:16;;;;;;;52.15;14.65;;;;;;;-0.90;100.00;100651.93;1530875;92;21029;-89
2021/12/29 07:29:42;;;;;;;45.38;12.82;;;;;;;-0.93;100.00;100665.02;1530444;92;21157;-90
2021/12/29 07:32:09;;;;;;;50.03;13.65;;;;;;;-0.91;100.00;100666.98;1530617;92;21581;-89
2021/12/29 07:34:36;;;;;;;42.73;13.55;;;;;;;-0.97;100.00;100671.18;1530727;92;21293;-89
2021/12/29 07:37:03;;;;;;;41.40;13.78;;;;;;;-0.97;100.00;100668.53;1530909;92;21689;-88
2021/12/29 07:39:29;;;;;;;38.60;12.95;;;;;;;-1.02;100.00;100672.72;1531444;92;21168;-90
2021/12/29 07:41:55;;;;;;;48.02;14.80;;;;;;;-0.99;100.00;100678.47;1570441;90;21002;-89
2021/12/29 07:44:25;;;;;;;47.15;14.75;;;;;;;-0.97;100.00;100683.08;1579491;89;21086;-91
2021/12/29 07:46:55;;;;;;;51.08;15.18;;;;;;;-0.96;100.00;100685.22;1579237;90;21850;-91
2021/12/29 07:49:22;;;;;;;51.98;15.70;;;;;;;-0.96;100.00;100679.92;1579059;89;21549;-91
2021/12/29 07:51:48;;;;;;;44.75;14.75;;;;;;;-1.00;100.00;100691.85;1584037;89;21120;-90
2021/12/29 07:54:14;;;;;;;51.53;14.70;;;;;;;-1.04;100.00;100697.20;1580975;89;20958;-90
2021/12/29 07:56:43;;;;;;;48.52;15.10;;;;;;;-1.03;100.00;100691.74;1561412;90;20979;-92
2021/12/29 07:59:09;;;;;;;57.48;15.83;;;;;;;-1.04;100.00;100688.76;1512406;93;21117;-94
2021/12/29 08:01:36;;;;;;;51.58;15.40;;;;;;;-1.02;100.00;100693.88;1530978;90;21097;-92
2021/12/29 08:04:02;;;;;;;52.55;15.48;;;;;;;-0.95;100.00;100690.81;1562282;90;21109;-95
2021/12/29 08:06:29;;;;;;;53.30;15.08;;;;;;;-0.93;100.00;100690.95;1562297;90;21069;-92
2021/12/29 08:08:55;;;;;;;52.43;15.05;;;;;;;-1.00;100.00;100691.37;1561966;90;21790;-92
2021/12/29 08:11:22;;;;;;;46.70;13.43;;;;;;;-0.99;100.00;100689.05;1563559;90;21176;-92
2021/12/29 08:13:49;;;;;;;47.88;14.30;;;;;;;-0.99;100.00;100684.27;1586009;89;21141;-92
2021/12/29 08:16:15;;;;;;;50.60;14.55;;;;;;;-0.94;100.00;100686.68;1586551;89;21260;-92
2021/12/29 08:18:46;;;;;;;46.80;14.33;;;;;;;-0.88;100.00;100682.97;1586543;89;21101;-92
2021/12/29 08:21:12;;;;;;;55.73;16.07;;;;;;;-0.83;100.00;100688.03;1561187;91;21153;-92
2021/12/29 08:23:38;;;;;;;50.80;14.28;;;;;;;-0.83;100.00;100682.74;1561502;91;21175;-91
2021/12/29 08:26:04;;;;;;;40.28;13.38;;;;;;;-0.73;100.00;100686.45;1575212;88;21188;-92
2021/12/29 08:28:30;;;;;;;55.75;15.65;;;;;;;-0.63;100.00;100685.66;1613122;87;21087;-93
2021/12/29 08:30:57;;;;;;;52.33;15.58;;;;;;;-0.63;100.00;100679.04;1612964;87;21062;-93
2021/12/29 08:33:24;;;;;;;48.25;14.00;;;;;;;-0.62;100.00;100676.70;1613035;88;21037;-92
2021/12/29 08:35:51;;;;;;;44.03;13.48;;;;;;;-0.64;100.00;100672.12;1612679;89;21229;-86
2021/12/29 08:38:17;;;;;;;53.23;15.43;;;;;;;-0.65;100.00;100677.07;1613144;87;21025;-86
2021/12/29 08:40:44;;;;;;;49.88;13.58;;;;;;;-0.61;100.00;100674.39;1612862;87;21648;-87
2021/12/29 08:43:15;;;;;;;45.65;14.45;;;;;;;-0.52;100.00;100666.66;1612712;87;21178;-86
2021/12/29 08:45:46;;;;;;;44.38;14.73;;;;;;;-0.41;100.00;100675.12;1612417;87;21600;-87
2021/12/29 08:48:22;;;;;;;50.78;14.28;;;;;;;-0.42;100.00;100677.46;1620548;87;21125;-87
2021/12/29 08:50:50;;;;;;;50.65;14.50;;;;;;;-0.47;100.00;100674.87;1602796;88;21110;-86
2021/12/29 08:53:19;;;;;;;48.92;15.10;;;;;;;-0.44;100.00;100681.63;1609496;88;21059;-86
2021/12/29 08:55:48;;;;;;;46.48;14.18;;;;;;;-0.35;100.00;100683.16;1600477;87;21216;-85
2021/12/29 08:58:18;;;;;;;47.80;14.50;;;;;;;-0.33;100.00;100682.95;1634765;87;21096;-86
2021/12/29 09:00:46;;;;;;;50.45;14.47;;;;;;;-0.27;100.00;100676.91;1560683;91;21211;-87
2021/12/29 09:03:12;;;;;;;46.88;13.25;;;;;;;-0.19;100.00;100678.64;1564530;91;21253;-87
2021/12/29 09:08:12;;;;;;;49.30;12.70;;;;;;;-0.11;100.00;100683.32;1492609;95;21191;-87
2021/12/29 09:11:00;;;;;;;;;;;;;;;;;;;;;
2021/12/29 09:16:29;;;;;;;46.00;13.78;;;;;;;0.06;100.00;100681.27;1374660;103;21192;-88
2021/12/29 09:19:01;;;;;;;50.00;14.30;;;;;;;-0.03;100.00;100684.53;1361488;104;21555;-86
2021/12/29 09:42:07;;;;;;;;;;;;;;;;;;;;;
2021/12/29 09:44:41;;;;;;;35.08;11.50;;;;;;;-0.04;100.00;100670.95;1292392;111;21079;-85
2021/12/29 09:47:08;;;;;;;38.10;12.05;;;;;;;-0.08;100.00;100665.73;1246866;113;21173;-86
2021/12/29 09:49:49;;;;;;;36.00;9.88;;;;;;;0.03;100.00;100661.77;1240909;115;21404;-86
2021/12/29 09:52:18;;;;;;;28.65;10.40;;;;;;;0.06;100.00;100659.22;1271911;109;21304;-88
2021/12/29 09:54:44;;;;;;;37.80;10.98;;;;;;;0.04;100.00;100654.13;1266826;113;21274;-88
2021/12/29 09:57:10;;;;;;;32.60;10.72;;;;;;;0.10;100.00;100656.53;1270618;111;21686;-88
2021/12/29 09:59:37;;;;;;;29.48;10.98;;;;;;;0.13;100.00;100650.34;1286894;111;21095;-88
2021/12/29 10:02:08;;;;;;;30.60;11.57;;;;;;;0.19;100.00;100653.55;1310162;109;21268;-88
2021/12/29 10:04:36;;;;;;;36.55;12.00;;;;;;;0.35;100.00;100650.31;1309131;108;21237;-88
2021/12/29 10:07:19;;;;;;;33.33;11.35;;;;;;;0.40;100.00;100643.94;1310856;107;21244;-88
2021/12/29 10:09:46;;;;;;;35.08;11.20;;;;;;;0.33;100.00;100642.57;1310297;107;21392;-87
2021/12/29 10:12:19;;;;;;;37.20;12.23;;;;;;;0.32;100.00;100646.21;1314561;105;21176;-91
2021/12/29 10:14:53;;;;;;;35.73;12.37;;;;;;;0.35;100.00;100648.48;1343921;105;21355;-89
2021/12/29 10:17:25;;;;;;;33.67;11.53;;;;;;;0.35;100.00;100640.53;1328599;105;21121;-87
2021/12/29 10:20:09;;;;;;;35.17;12.18;;;;;;;0.36;100.00;100644.02;1377115;102;21278;-85
2021/12/29 10:22:39;;;;;;;36.38;12.40;;;;;;;0.50;100.00;100651.55;1388757;101;21088;-86
2021/12/29 10:25:15;;;;;;;37.33;11.48;;;;;;;0.59;100.00;100653.05;1390074;101;21743;-86
2021/12/29 10:27:47;;;;;;;40.90;12.43;;;;;;;0.67;100.00;100659.03;1375565;102;21207;-88
2021/12/29 10:30:28;;;;;;;38.38;11.68;;;;;;;0.74;100.00;100653.80;1373690;101;21130;-86
2021/12/29 10:32:57;;;;;;;36.95;12.58;;;;;;;0.82;100.00;100659.44;1330233;106;21173;-87
2021/12/29 10:35:29;;;;;;;34.90;11.93;;;;;;;0.87;100.00;100656.52;1343757;105;22081;-85
2021/12/29 10:38:39;;;;;;;;;;;;;;;;;;;;;
2021/12/29 10:41:03;;;;;;;34.98;12.90;;;;;;;0.81;100.00;100656.48;1291978;111;21287;-88
2021/12/29 10:43:30;;;;;;;41.37;14.10;;;;;;;0.68;100.00;100657.22;1292193;111;21232;-89
2021/12/29 10:45:57;;;;;;;40.65;13.98;;;;;;;0.58;100.00;100655.39;1292187;109;21208;-89
2021/12/29 10:48:30;;;;;;;39.23;13.25;;;;;;;0.57;100.00;100659.89;1292097;109;21385;-88
2021/12/29 10:51:04;;;;;;;39.18;13.20;;;;;;;0.54;100.00;100659.45;1291972;109;21149;-88
2021/12/29 10:53:32;;;;;;;40.70;13.48;;;;;;;0.55;100.00;100664.55;1291490;109;21993;-89
2021/12/29 10:55:58;;;;;;;39.83;13.30;;;;;;;0.65;100.00;100663.72;1279598;109;21119;-90
2021/12/29 10:58:29;;;;;;;41.80;13.93;;;;;;;0.67;100.00;100663.52;1301100;108;21174;-89
2021/12/29 11:01:12;;;;;;;39.15;13.40;;;;;;;0.63;100.00;100665.73;1341569;105;21212;-90
2021/12/29 11:03:52;;;;;;;39.38;13.62;;;;;;;0.62;100.00;100667.28;1342558;105;21186;-92
2021/12/29 11:06:22;;;;;;;35.25;12.20;;;;;;;0.58;100.00;100666.81;1337594;105;22399;-88
2021/12/29 11:08:58;;;;;;;37.13;12.70;;;;;;;0.57;100.00;100667.84;1337725;105;21231;-88
2021/12/29 11:11:35;;;;;;;30.75;11.18;;;;;;;0.54;100.00;100666.08;1337534;105;21712;-88
2021/12/29 11:14:17;;;;;;;32.00;11.45;;;;;;;0.61;100.00;100661.64;1347865;104;21095;-90
2021/12/29 11:17:03;;;;;;;31.52;11.22;;;;;;;0.64;100.00;100669.20;1348670;104;21238;-89
2021/12/29 11:19:29;;;;;;;28.40;10.18;;;;;;;0.66;100.00;100672.50;1314728;107;21297;-89
2021/12/29 11:22:11;;;;;;;27.02;9.78;;;;;;;0.56;100.00;100668.02;1277693;109;21208;-88
2021/12/29 11:24:40;;;;;;;29.15;10.30;;;;;;;0.50;100.00;100676.73;1326856;102;21095;-86
2021/12/29 11:27:16;;;;;;;25.02;8.95;;;;;;;0.35;100.00;100678.96;1372120;102;21234;-87
2021/12/29 11:29:53;;;;;;;28.70;10.32;;;;;;;0.25;100.00;100682.45;1420900;95;21162;-90
2021/12/29 11:32:27;;;;;;;25.92;9.23;;;;;;;0.22;100.00;100688.13;1356173;103;22148;-87
2021/12/29 11:35:08;;;;;;;24.05;9.15;;;;;;;0.16;100.00;100688.37;1350948;103;21852;-87
2021/12/29 11:37:39;;;;;;;28.15;10.50;;;;;;;0.11;100.00;100691.28;1348016;103;21055;-87
2021/12/29 11:40:08;;;;;;;29.67;11.45;;;;;;;0.00;100.00;100696.59;1316439;106;21144;-87
2021/12/29 11:42:34;;;;;;;33.70;11.15;;;;;;;-0.10;100.00;100702.67;1347395;105;21317;-87
2021/12/29 11:45:03;;;;;;;33.10;11.55;;;;;;;-0.10;100.00;100707.97;1434674;98;21226;-88
2021/12/29 11:50:21;;;;;;;;;;;;;;;;;;;;;
2021/12/29 11:53:23;;;;;;;32.35;11.80;;;;;;;-0.21;100.00;100719.86;1368407;102;21550;-89
2021/12/29 11:55:58;;;;;;;34.45;11.93;;;;;;;-0.28;100.00;100713.17;1360870;104;21198;-89
2021/12/29 11:58:42;;;;;;;;;;;;;;;;;;;;;